Time;durP1;ratioP1;P1;durP2;ratioP2;P2;SDS_P1;SDS_P2;PMS_P1;PMS_P2;Temp;Humidity;BMP_temperature;BMP_pressure;BME280_temperature;BME280_humidity;BME280_pressure;Samples;Min_cycle;Max_cycle;Signal;HPM_P1;HPM_P2
2021/06/25 00:00:22;;;;;;;18.25;9.90;;;;;;;25.19;63.44;100023.97;5067971;28;20817;-21
2021/06/25 00:02:48;;;;;;;23.33;9.45;;;;;;;25.39;62.67;100016.31;5067954;28;20036;-22
2021/06/25 00:05:13;;;;;;;17.58;9.52;;;;;;;25.24;62.31;99999.28;5068173;28;20115;-22
2021/06/25 00:07:39;;;;;;;19.98;10.38;;;;;;;25.55;61.07;100011.19;5067823;28;20480;-22
2021/06/25 00:10:05;;;;;;;18.38;8.57;;;;;;;25.75;60.10;99993.38;5067421;28;20036;-22
2021/06/25 00:12:30;;;;;;;13.85;8.82;;;;;;;25.58;60.49;99997.72;5067630;28;20028;-22
2021/06/25 00:14:56;;;;;;;17.58;9.48;;;;;;;25.26;62.01;99996.25;5067864;28;20408;-22
2021/06/25 00:17:21;;;;;;;17.48;8.75;;;;;;;25.48;60.98;99989.84;5049540;28;20059;-21
2021/06/25 00:19:47;;;;;;;15.95;8.40;;;;;;;25.48;60.51;99992.56;5067223;28;20052;-21
2021/06/25 00:22:12;;;;;;;16.38;8.82;;;;;;;25.25;61.73;99989.16;5067338;28;20094;-22
2021/06/25 00:24:38;;;;;;;16.73;8.20;;;;;;;25.13;62.24;99992.50;5067629;28;20412;-22
2021/06/25 00:27:04;;;;;;;15.77;8.35;;;;;;;25.63;60.38;99994.00;5067656;28;20082;-22
2021/06/25 00:29:29;;;;;;;19.77;8.63;;;;;;;25.74;60.02;99983.56;5067604;28;20839;-22
2021/06/25 00:31:55;;;;;;;18.23;9.00;;;;;;;25.16;61.85;99980.94;5067298;28;20032;-22
2021/06/25 00:34:20;;;;;;;17.05;9.00;;;;;;;24.51;63.91;99981.72;5067592;28;20040;-22
2021/06/25 00:36:46;;;;;;;18.65;8.88;;;;;;;24.86;62.11;99988.09;5067166;28;20025;-21
2021/06/25 00:39:12;;;;;;;16.17;8.55;;;;;;;25.10;61.63;99984.16;5067443;28;20024;-22
2021/06/25 00:41:37;;;;;;;19.92;9.02;;;;;;;25.17;61.40;99981.72;5067228;28;20024;-22
2021/06/25 00:44:03;;;;;;;13.90;9.07;;;;;;;25.46;60.68;99994.81;5067057;28;20036;-22
2021/06/25 00:46:30;;;;;;;13.40;8.68;;;;;;;25.41;60.28;99994.97;5067136;28;20032;-22
2021/06/25 00:48:56;;;;;;;17.48;9.13;;;;;;;24.62;63.33;99977.56;5066980;28;20111;-22
2021/06/25 00:51:22;;;;;;;21.95;9.40;;;;;;;24.01;65.19;100001.78;5067408;28;20028;-22
2021/06/25 00:53:47;;;;;;;19.15;8.95;;;;;;;23.91;65.61;100002.81;5066997;28;20115;-22
2021/06/25 00:56:13;;;;;;;21.50;10.18;;;;;;;23.97;65.27;100001.59;5048935;28;20029;-22
2021/06/25 00:58:38;;;;;;;21.35;11.48;;;;;;;23.95;66.48;100009.25;5067097;28;20036;-21
2021/06/25 01:01:04;;;;;;;17.83;11.27;;;;;;;24.49;64.61;100011.19;5067011;28;20464;-22
2021/06/25 01:03:30;;;;;;;16.52;11.00;;;;;;;23.84;67.10;100002.44;5067050;28;20115;-22
2021/06/25 01:05:56;;;;;;;18.40;11.30;;;;;;;23.35;68.65;99993.19;5066924;28;20020;-22
2021/06/25 01:08:22;;;;;;;22.20;12.70;;;;;;;24.13;66.27;100010.19;5066620;28;20029;-22
2021/06/25 01:10:47;;;;;;;18.38;12.63;;;;;;;24.51;64.72;100017.16;5049325;28;20082;-22
2021/06/25 01:13:13;;;;;;;18.48;12.13;;;;;;;24.52;64.59;100024.19;5067005;28;20041;-22
2021/06/25 01:15:38;;;;;;;18.83;12.45;;;;;;;24.39;65.34;100023.94;5049082;28;20043;-22
2021/06/25 01:18:05;;;;;;;22.23;12.68;;;;;;;24.80;63.96;100025.59;5066745;28;20895;-22
2021/06/25 01:20:31;;;;;;;19.15;13.15;;;;;;;25.23;61.95;100014.06;5067042;28;20117;-22
2021/06/25 01:22:56;;;;;;;17.92;11.43;;;;;;;25.13;62.42;100014.34;5066977;28;20416;-22
2021/06/25 01:25:24;;;;;;;20.25;12.15;;;;;;;25.24;61.90;100007.47;5066858;28;20465;-22
2021/06/25 01:27:51;;;;;;;18.77;12.88;;;;;;;24.98;62.95;100012.03;5066904;28;20044;-22
2021/06/25 01:30:20;;;;;;;16.80;11.98;;;;;;;25.17;61.96;99992.66;5066635;28;20625;-22
2021/06/25 01:32:45;;;;;;;17.92;12.20;;;;;;;25.19;61.53;99985.78;5048925;28;20047;-22
2021/06/25 01:35:11;;;;;;;17.50;11.82;;;;;;;24.77;63.32;99995.44;5066892;28;20415;-22
2021/06/25 01:37:37;;;;;;;18.73;12.00;;;;;;;24.56;63.94;99995.19;5066657;28;20786;-22
2021/06/25 01:40:03;;;;;;;19.67;12.60;;;;;;;24.58;64.41;99998.41;5048555;28;20033;-22
2021/06/25 01:42:31;;;;;;;22.13;12.82;;;;;;;24.64;64.28;100013.50;5066891;28;20040;-22
2021/06/25 01:44:57;;;;;;;17.52;11.82;;;;;;;24.34;65.17;100023.28;5049125;28;20115;-21
2021/06/25 01:47:22;;;;;;;18.92;12.45;;;;;;;24.37;64.66;100028.91;5048557;28;20116;-22
2021/06/25 01:49:48;;;;;;;21.33;12.68;;;;;;;24.62;63.86;100027.47;5069341;28;20033;-22
2021/06/25 01:52:18;;;;;;;20.00;11.90;;;;;;;24.54;64.25;100025.50;5070158;28;20033;-22
2021/06/25 01:54:47;;;;;;;16.33;12.38;;;;;;;25.01;62.46;100025.06;5052721;28;20029;-22
2021/06/25 01:57:13;;;;;;;23.02;12.82;;;;;;;25.01;62.33;100035.97;5070227;28;20439;-22
2021/06/25 01:59:38;;;;;;;18.88;12.38;;;;;;;24.98;61.87;100033.84;5070329;28;20020;-22
2021/06/25 02:02:04;;;;;;;21.83;13.23;;;;;;;25.10;61.51;100019.63;5069978;28;20048;-22
2021/06/25 02:04:29;;;;;;;21.50;12.38;;;;;;;24.60;63.12;100001.63;5070415;28;20028;-22
2021/06/25 02:06:55;;;;;;;19.50;11.82;;;;;;;24.28;64.72;100022.63;5070208;28;20036;-22
2021/06/25 02:09:21;;;;;;;18.58;12.00;;;;;;;24.13;65.53;100021.09;5070058;28;20128;-22
2021/06/25 02:11:46;;;;;;;20.35;11.75;;;;;;;23.72;66.64;100004.88;5070067;28;20044;-21
2021/06/25 02:14:12;;;;;;;18.10;10.73;;;;;;;23.74;66.92;100008.09;5069767;28;20396;-22
2021/06/25 02:16:37;;;;;;;19.63;11.05;;;;;;;23.80;66.32;100001.44;5069743;28;20480;-22
2021/06/25 02:19:03;;;;;;;20.45;10.75;;;;;;;23.91;65.85;99991.94;5070110;28;20501;-22
2021/06/25 02:21:28;;;;;;;18.58;10.75;;;;;;;24.41;63.77;99988.19;5070051;28;20089;-22
2021/06/25 02:23:54;;;;;;;16.45;10.55;;;;;;;24.66;63.00;99994.91;5069956;28;20028;-22
2021/06/25 02:26:20;;;;;;;18.25;10.38;;;;;;;24.50;62.34;99980.91;5069896;28;20029;-22
2021/06/25 02:28:45;;;;;;;16.67;9.93;;;;;;;23.85;65.57;99999.41;5069794;28;20137;-22
2021/06/25 02:31:11;;;;;;;19.95;9.82;;;;;;;23.55;65.94;99981.06;5069609;28;20111;-22
2021/06/25 02:33:36;;;;;;;16.00;9.80;;;;;;;23.49;66.53;99979.56;5069812;28;20029;-22
2021/06/25 02:36:02;;;;;;;17.65;10.23;;;;;;;23.41;66.29;99994.69;5069407;28;20549;-22
2021/06/25 02:38:27;;;;;;;17.13;9.40;;;;;;;23.44;66.70;100005.78;5069575;28;20036;-22
2021/06/25 02:40:53;;;;;;;20.50;10.05;;;;;;;23.53;66.63;100013.22;5069774;28;20540;-22
2021/06/25 02:43:18;;;;;;;22.98;10.15;;;;;;;23.16;67.49;99988.69;5069482;28;20032;-21
2021/06/25 02:45:44;;;;;;;19.20;9.65;;;;;;;23.02;68.66;100004.22;5069347;28;20461;-22
2021/06/25 02:48:09;;;;;;;18.55;10.25;;;;;;;23.06;68.09;99997.06;5069635;28;20035;-22
2021/06/25 02:50:35;;;;;;;18.92;10.35;;;;;;;22.94;68.85;100007.63;5069580;28;20025;-21
2021/06/25 02:53:00;;;;;;;20.08;10.20;;;;;;;23.51;66.83;100001.81;5069132;28;20041;-22
2021/06/25 02:55:26;;;;;;;18.13;10.07;;;;;;;23.20;67.79;99999.78;5069655;28;20059;-21
2021/06/25 02:57:51;;;;;;;20.38;10.52;;;;;;;22.84;69.16;99993.16;5069273;28;20131;-22
2021/06/25 03:00:18;;;;;;;15.95;10.95;;;;;;;22.39;69.55;99986.66;5069215;28;20093;-22
2021/06/25 03:02:45;;;;;;;18.38;11.15;;;;;;;22.72;68.52;99994.72;5069508;28;20029;-22
2021/06/25 03:05:12;;;;;;;16.13;11.10;;;;;;;22.88;67.85;99993.31;5069275;28;20143;-22
2021/06/25 03:07:37;;;;;;;21.60;11.83;;;;;;;22.59;68.60;99990.91;5051346;28;20036;-22
2021/06/25 03:10:04;;;;;;;21.85;12.23;;;;;;;22.34;69.38;99995.72;5068764;28;20526;-22
2021/06/25 03:12:29;;;;;;;18.95;11.93;;;;;;;22.35;69.49;99991.91;5068902;28;20024;-22
2021/06/25 03:14:55;;;;;;;20.80;12.35;;;;;;;22.29;69.81;99990.34;5068836;28;20109;-22
2021/06/25 03:17:20;;;;;;;18.92;12.02;;;;;;;22.27;70.13;99987.13;5068764;28;20034;-22
2021/06/25 03:19:46;;;;;;;19.77;11.27;;;;;;;22.33;70.01;99998.72;5068613;28;20056;-22
2021/06/25 03:22:11;;;;;;;19.88;11.27;;;;;;;22.38;69.96;99987.78;5068428;28;20037;-22
2021/06/25 03:24:37;;;;;;;19.27;11.32;;;;;;;22.35;70.03;99972.88;5068645;28;20039;-22
2021/06/25 03:27:02;;;;;;;21.50;12.43;;;;;;;23.22;66.75;99992.91;5068819;28;20028;-22
2021/06/25 03:29:28;;;;;;;19.33;12.48;;;;;;;23.85;64.94;99983.06;5068530;28;20448;-22
2021/06/25 03:31:53;;;;;;;25.85;12.40;;;;;;;23.59;66.38;99988.28;5050712;28;20040;-22
2021/06/25 03:34:19;;;;;;;22.58;12.10;;;;;;;23.16;67.56;99966.94;5068178;28;20033;-27
2021/06/25 03:36:44;;;;;;;24.20;12.60;;;;;;;23.65;65.58;99970.72;5068511;28;20032;-21
2021/06/25 03:39:10;;;;;;;19.92;12.40;;;;;;;24.15;64.27;99980.72;5068398;28;20039;-22
2021/06/25 03:41:35;;;;;;;20.23;12.60;;;;;;;24.36;63.46;99974.72;5068411;28;20527;-22
2021/06/25 03:44:01;;;;;;;22.10;14.68;;;;;;;23.95;64.66;99979.31;5068171;28;20768;-22
2021/06/25 03:46:26;;;;;;;22.40;13.90;;;;;;;23.85;65.18;99977.63;5067139;28;20028;-22
2021/06/25 03:48:52;;;;;;;21.92;13.57;;;;;;;24.06;64.47;99977.13;5066863;28;20085;-22
2021/06/25 03:51:18;;;;;;;20.35;13.45;;;;;;;23.95;64.86;99992.91;5067102;28;20031;-22
2021/06/25 03:53:43;;;;;;;21.88;14.70;;;;;;;23.70;66.66;99979.88;5068520;28;20036;-22
2021/06/25 03:56:10;;;;;;;22.17;13.88;;;;;;;23.74;66.55;99986.31;5050203;28;20032;-21
2021/06/25 03:58:36;;;;;;;21.08;13.25;;;;;;;23.47;67.09;99971.69;5067854;28;20103;-22
2021/06/25 04:01:02;;;;;;;18.65;13.65;;;;;;;23.88;66.07;99984.38;5067958;28;20028;-21
2021/06/25 04:03:28;;;;;;;17.33;12.10;;;;;;;24.11;65.38;99992.53;5068076;28;20040;-22
2021/06/25 04:05:53;;;;;;;21.38;12.27;;;;;;;24.28;64.39;99989.91;5067809;28;20028;-21
2021/06/25 04:08:19;;;;;;;18.30;12.25;;;;;;;24.15;64.55;99988.88;5067571;28;20024;-22
2021/06/25 04:10:45;;;;;;;24.63;12.00;;;;;;;24.03;64.86;99984.00;5067845;28;20458;-21
2021/06/25 04:13:10;;;;;;;45.08;14.93;;;;;;;23.92;65.37;99982.63;5067493;28;20038;-22
2021/06/25 04:15:36;;;;;;;33.00;14.55;;;;;;;23.62;66.66;99981.41;5068115;28;20490;-22
2021/06/25 04:18:02;;;;;;;32.00;13.52;;;;;;;23.29;68.47;99997.94;5067361;28;20104;-22
2021/06/25 04:20:27;;;;;;;25.52;14.18;;;;;;;23.34;68.99;99991.59;5067670;28;20020;-22
2021/06/25 04:22:53;;;;;;;19.13;12.82;;;;;;;23.90;67.37;99992.22;5067940;28;20039;-22
2021/06/25 04:25:19;;;;;;;22.65;12.30;;;;;;;24.00;67.04;99979.16;5067812;28;20118;-22
2021/06/25 04:27:44;;;;;;;18.45;12.30;;;;;;;23.92;67.30;99998.97;5067297;28;20120;-22
2021/06/25 04:30:12;;;;;;;19.98;11.75;;;;;;;23.88;66.98;99997.19;5067374;28;20400;-22
2021/06/25 04:32:38;;;;;;;18.77;11.27;;;;;;;23.84;67.44;99994.28;5067509;28;20035;-22
2021/06/25 04:35:04;;;;;;;17.70;10.95;;;;;;;24.33;65.94;99983.50;5067356;28;20032;-22
2021/06/25 04:37:30;;;;;;;16.20;10.80;;;;;;;24.50;64.68;99993.72;5067477;28;20028;-22
2021/06/25 04:39:55;;;;;;;17.90;10.63;;;;;;;24.69;64.04;99999.75;5067344;28;20020;-22
2021/06/25 04:42:21;;;;;;;18.20;10.65;;;;;;;24.99;63.12;99997.28;5066967;28;20081;-22
2021/06/25 04:44:46;;;;;;;16.77;10.00;;;;;;;24.51;64.11;99998.06;5067451;28;20035;-22
2021/06/25 04:47:11;;;;;;;17.85;10.75;;;;;;;24.43;65.12;99997.66;5067380;28;20511;-22
2021/06/25 04:49:38;;;;;;;18.38;10.95;;;;;;;24.37;65.07;100006.31;5066996;28;20036;-21
2021/06/25 04:52:04;;;;;;;20.10;13.23;;;;;;;24.61;64.98;99989.63;5049144;28;20036;-22
2021/06/25 04:54:30;;;;;;;18.13;13.43;;;;;;;24.80;65.21;100005.72;5067229;28;20031;-22
2021/06/25 04:56:55;;;;;;;20.45;13.32;;;;;;;24.41;66.03;99997.19;5067441;28;20036;-22
2021/06/25 04:59:21;;;;;;;19.20;13.85;;;;;;;24.63;65.66;99990.09;5067592;28;20033;-22
2021/06/25 05:01:47;;;;;;;21.00;13.98;;;;;;;24.66;65.44;100005.81;5067521;28;20338;-21
2021/06/25 05:04:13;;;;;;;22.25;13.10;;;;;;;24.65;65.16;99994.13;5066928;28;20024;-22
2021/06/25 05:06:38;;;;;;;27.27;14.02;;;;;;;25.04;64.41;100005.31;5067229;28;20036;-22
2021/06/25 05:09:04;;;;;;;16.85;12.32;;;;;;;25.00;63.03;99999.69;5067241;28;20915;-22
2021/06/25 05:11:29;;;;;;;19.85;10.57;;;;;;;25.04;63.09;100008.03;5066899;28;20036;-22
2021/06/25 05:13:55;;;;;;;18.05;11.18;;;;;;;25.15;62.33;100001.19;5067182;28;20557;-22
2021/06/25 05:16:20;;;;;;;16.35;10.88;;;;;;;25.21;62.09;99997.22;5066606;28;20036;-22
2021/06/25 05:18:46;;;;;;;15.35;10.55;;;;;;;25.43;61.10;99981.78;5066844;28;20551;-21
2021/06/25 05:21:11;;;;;;;20.65;10.63;;;;;;;25.69;61.18;99997.38;5066921;28;20463;-21
2021/06/25 05:23:37;;;;;;;16.15;10.80;;;;;;;25.78;60.62;99984.53;5067668;28;20504;-22
2021/06/25 05:26:02;;;;;;;20.30;10.63;;;;;;;25.86;59.58;99975.50;5070588;28;20033;-22
2021/06/25 05:28:28;;;;;;;15.20;9.50;;;;;;;25.93;58.34;99975.88;5052972;28;20082;-22
2021/06/25 05:30:54;;;;;;;16.48;9.70;;;;;;;25.70;59.24;99977.13;5070873;28;20059;-22
2021/06/25 05:33:19;;;;;;;20.63;10.30;;;;;;;25.58;60.23;99986.78;5070787;28;20037;-21
2021/06/25 05:35:45;;;;;;;19.10;10.00;;;;;;;25.87;59.40;99966.19;5071065;28;20700;-21
2021/06/25 05:38:14;;;;;;;17.98;10.38;;;;;;;26.03;58.84;99970.06;5070767;28;20825;-22
2021/06/25 05:40:40;;;;;;;19.50;9.77;;;;;;;26.04;59.39;99971.66;5070613;28;20032;-22
2021/06/25 05:43:06;;;;;;;18.88;10.45;;;;;;;26.27;58.38;99990.56;5070985;28;20028;-21
2021/06/25 05:45:32;;;;;;;20.40;9.90;;;;;;;26.46;57.33;99965.59;5071085;28;20034;-22
2021/06/25 05:47:58;;;;;;;14.57;8.85;;;;;;;26.38;57.42;99983.63;5052439;28;20032;-22
2021/06/25 05:50:23;;;;;;;19.52;8.48;;;;;;;26.42;56.62;99973.63;5070531;28;20421;-22
2021/06/25 05:52:49;;;;;;;17.17;8.15;;;;;;;26.61;56.66;99973.25;5070588;28;20131;-22
2021/06/25 05:55:14;;;;;;;18.15;8.45;;;;;;;26.73;56.60;99964.34;5070078;28;20572;-22
2021/06/25 05:57:40;;;;;;;20.55;8.77;;;;;;;26.77;55.83;99948.88;5070457;28;20111;-21
2021/06/25 06:00:07;;;;;;;17.75;8.38;;;;;;;26.94;55.64;99947.19;5070164;28;20056;-22
2021/06/25 06:02:32;;;;;;;21.30;8.30;;;;;;;26.97;55.69;99957.44;5070433;28;20033;-21
2021/06/25 06:04:57;;;;;;;21.05;8.68;;;;;;;27.07;55.99;99946.09;5070264;28;20043;-22
2021/06/25 06:07:23;;;;;;;23.15;9.40;;;;;;;27.41;54.35;99955.25;5070417;28;20546;-22
2021/06/25 06:09:48;;;;;;;17.83;9.00;;;;;;;27.51;54.30;99957.56;5070037;28;20029;-22
2021/06/25 06:12:14;;;;;;;18.50;9.32;;;;;;;27.58;54.39;99927.72;5069899;28;20028;-22
2021/06/25 06:14:39;;;;;;;19.35;10.43;;;;;;;27.80;53.89;99951.16;5070098;28;20409;-21
2021/06/25 06:17:05;;;;;;;20.35;8.88;;;;;;;28.00;52.79;99943.28;5069947;28;20111;-21
2021/06/25 06:19:38;;;;;;;18.17;8.57;;;;;;;28.14;53.37;99943.75;5068766;28;20064;-22
2021/06/25 06:33:03;;;;;;;22.35;9.30;;;;;;;28.85;51.04;99917.84;5068593;28;20085;-21
2021/06/25 06:35:29;;;;;;;17.65;8.52;;;;;;;28.81;51.43;99918.84;5068053;28;20041;-22
2021/06/25 06:38:01;;;;;;;15.43;8.50;;;;;;;28.79;51.94;99930.22;5050750;28;20035;-21
2021/06/25 06:40:26;;;;;;;15.43;8.50;;;;;;;28.78;50.58;99923.09;5050487;28;20465;-21
2021/06/25 06:42:52;;;;;;;23.45;8.60;;;;;;;28.81;51.02;99927.91;5068539;28;20616;-21
2021/06/25 06:45:17;;;;;;;17.00;8.95;;;;;;;28.75;51.59;99918.31;5068239;28;20035;-21
2021/06/25 06:47:44;;;;;;;17.73;8.35;;;;;;;28.89;51.05;99892.44;5068421;28;20054;-21
2021/06/25 06:50:10;;;;;;;23.25;15.00;;;;;;;29.14;49.61;99896.75;5068053;28;20032;-22
2021/06/25 06:52:35;;;;;;;29.35;12.05;;;;;;;29.13;48.52;99897.88;5068542;28;20471;-22
2021/06/25 06:55:00;;;;;;;26.55;14.52;;;;;;;29.50;47.84;99895.00;5068225;28;20040;-21
2021/06/25 06:57:26;;;;;;;15.48;8.65;;;;;;;29.52;47.89;99883.66;5050285;28;20028;-21
2021/06/25 06:59:51;;;;;;;18.45;7.68;;;;;;;29.89;47.36;99895.28;5068215;28;20032;-22
2021/06/25 07:02:17;;;;;;;21.90;10.68;;;;;;;29.49;47.91;99892.63;5068062;28;20036;-22
2021/06/25 07:04:42;;;;;;;19.40;8.27;;;;;;;29.74;48.01;99887.81;5068152;28;20480;-21
2021/06/25 07:07:08;;;;;;;16.35;8.27;;;;;;;29.86;46.48;99882.25;5067985;28;20024;-22
2021/06/25 07:09:33;;;;;;;19.52;9.57;;;;;;;29.88;47.12;99888.19;5068240;28;20020;-21
2021/06/25 07:11:59;;;;;;;21.35;9.75;;;;;;;29.94;46.70;99895.03;5068183;28;20025;-21
2021/06/25 07:14:24;;;;;;;17.42;8.23;;;;;;;30.02;47.28;99893.25;5067686;28;20036;-22
2021/06/25 07:16:50;;;;;;;22.55;8.57;;;;;;;30.27;46.78;99880.13;5068135;28;20047;-21
2021/06/25 07:19:16;;;;;;;20.80;8.18;;;;;;;30.73;45.97;99887.88;5022614;28;1299688;-22
2021/06/25 07:21:41;;;;;;;18.60;8.52;;;;;;;31.10;45.43;99902.09;5068760;28;20488;-21
2021/06/25 07:24:07;;;;;;;16.98;7.97;;;;;;;31.35;44.70;99902.59;5068620;28;20036;-22
2021/06/25 07:26:32;;;;;;;16.00;7.93;;;;;;;31.41;44.74;99901.13;5068635;28;20488;-21
2021/06/25 07:28:58;;;;;;;19.10;8.50;;;;;;;31.42;44.05;99904.66;5068839;28;20021;-21
2021/06/25 07:31:23;;;;;;;21.90;10.23;;;;;;;30.86;44.06;99894.06;5068665;28;20031;-21
2021/06/25 07:33:49;;;;;;;16.63;8.43;;;;;;;30.99;44.79;99887.28;5068575;28;20029;-21
2021/06/25 07:36:16;;;;;;;20.80;8.18;;;;;;;31.38;43.87;99898.28;5068561;28;20037;-22
2021/06/25 07:38:41;;;;;;;21.48;11.43;;;;;;;31.57;44.15;99901.06;5068496;28;20162;-22
2021/06/25 07:41:07;;;;;;;16.90;7.82;;;;;;;31.56;43.54;99882.94;5068558;28;20036;-21
2021/06/25 07:43:32;;;;;;;16.45;8.20;;;;;;;31.33;43.20;99901.34;5068327;28;20036;-21
2021/06/25 07:45:58;;;;;;;16.92;8.82;;;;;;;31.38;44.23;99898.28;5067824;28;20040;-22
2021/06/25 07:48:23;;;;;;;17.13;7.68;;;;;;;31.48;43.71;99906.00;5068118;28;20024;-21
2021/06/25 07:50:49;;;;;;;17.73;8.98;;;;;;;31.70;43.75;99911.94;5068435;28;20049;-22
2021/06/25 07:53:14;;;;;;;19.30;9.00;;;;;;;31.48;44.17;99894.19;5068282;28;20037;-21
2021/06/25 07:55:43;;;;;;;17.45;8.95;;;;;;;31.84;43.87;99893.69;5068042;28;20107;-21
2021/06/25 07:58:12;;;;;;;14.25;7.93;;;;;;;32.58;42.64;99903.59;5067949;28;20063;-21
2021/06/25 08:00:38;;;;;;;22.08;9.18;;;;;;;32.40;43.41;99908.81;5068189;28;20829;-22
2021/06/25 08:03:04;;;;;;;18.00;8.02;;;;;;;32.47;43.09;99891.56;5068133;28;20161;-22
2021/06/25 08:05:29;;;;;;;15.23;8.73;;;;;;;32.46;43.31;99894.69;5068045;28;20099;-22
2021/06/25 08:07:54;;;;;;;18.05;8.52;;;;;;;32.55;43.70;99886.97;5067997;28;20025;-21
2021/06/25 08:10:20;;;;;;;14.48;8.50;;;;;;;32.59;42.92;99898.84;5067674;28;20036;-21
2021/06/25 08:12:45;;;;;;;17.05;8.98;;;;;;;32.34;42.96;99898.47;5067813;28;20032;-21
2021/06/25 08:15:11;;;;;;;21.63;8.90;;;;;;;32.43;43.84;99901.78;5067710;28;20385;-22
2021/06/25 08:17:37;;;;;;;17.42;8.90;;;;;;;32.60;42.28;99897.69;5067873;28;20034;-21
2021/06/25 08:20:04;;;;;;;18.70;8.55;;;;;;;32.35;42.89;99878.78;5066950;28;20056;-22
2021/06/25 08:22:29;;;;;;;23.35;8.98;;;;;;;32.46;41.24;99895.50;5067854;28;20044;-21
2021/06/25 08:24:55;;;;;;;19.52;8.57;;;;;;;32.59;41.54;99905.19;5067688;28;20032;-21
2021/06/25 08:27:20;;;;;;;15.52;8.55;;;;;;;32.92;43.05;99895.38;5067593;28;20070;-21
2021/06/25 08:29:46;;;;;;;17.85;9.27;;;;;;;33.06;42.01;99892.03;5067530;28;20028;-21
2021/06/25 08:32:11;;;;;;;18.45;8.40;;;;;;;33.08;40.82;99888.88;5067230;28;20024;-22
2021/06/25 08:34:37;;;;;;;14.65;9.43;;;;;;;32.96;41.76;99906.50;5067712;28;20040;-22
2021/06/25 08:37:03;;;;;;;20.27;8.77;;;;;;;33.04;40.30;99891.59;5067543;28;20032;-22
2021/06/25 08:39:30;;;;;;;19.80;9.88;;;;;;;32.95;40.90;99877.25;5067549;28;20083;-21
2021/06/25 08:41:55;;;;;;;19.98;8.95;;;;;;;33.30;41.20;99898.25;5067446;28;20034;-21
2021/06/25 08:44:21;;;;;;;17.65;9.10;;;;;;;33.43;40.80;99894.84;5033219;28;20052;-22
2021/06/25 08:46:47;;;;;;;20.65;9.80;;;;;;;33.70;39.09;99894.75;5067568;28;20816;-21
2021/06/25 08:49:12;;;;;;;17.65;9.35;;;;;;;33.82;38.35;99899.22;5067091;28;20413;-21
2021/06/25 08:51:38;;;;;;;19.20;8.98;;;;;;;33.78;39.51;99896.41;5049426;28;20511;-21
2021/06/25 08:54:03;;;;;;;22.33;9.48;;;;;;;33.79;38.36;99892.47;5049079;28;20060;-22
2021/06/25 08:56:31;;;;;;;17.38;8.90;;;;;;;33.95;38.50;99894.97;5049269;28;20386;-21
2021/06/25 08:58:57;;;;;;;19.17;9.07;;;;;;;33.86;39.48;99885.41;5067283;28;20416;-21
2021/06/25 09:01:23;;;;;;;18.40;9.88;;;;;;;33.84;39.11;99888.56;5049345;28;20028;-21
2021/06/25 09:03:54;;;;;;;19.23;9.05;;;;;;;33.79;38.55;99880.59;5032569;28;20039;-21
2021/06/25 09:06:20;;;;;;;20.35;8.52;;;;;;;33.81;38.04;99883.78;5066978;28;20060;-21
2021/06/25 09:08:45;;;;;;;18.60;9.25;;;;;;;34.05;38.58;99887.94;5067236;28;20068;-21
2021/06/25 09:11:24;;;;;;;23.77;9.45;;;;;;;34.13;39.47;99858.38;5066962;28;20089;-21
2021/06/25 09:14:04;;;;;;;16.63;8.43;;;;;;;34.50;37.94;99866.56;5066954;28;20040;-21
2021/06/25 09:16:31;;;;;;;17.38;9.23;;;;;;;34.43;39.54;99861.00;5066914;28;20086;-21
2021/06/25 09:19:07;;;;;;;17.33;8.98;;;;;;;34.23;38.45;99849.38;5067010;28;20048;-21
2021/06/25 09:21:38;;;;;;;20.83;8.85;;;;;;;34.49;38.81;99850.31;5066651;28;20047;-22
2021/06/25 09:24:19;;;;;;;23.92;9.25;;;;;;;34.94;37.27;99864.81;5066561;28;20483;-22
2021/06/25 09:26:45;;;;;;;22.90;10.25;;;;;;;34.75;37.24;99863.94;5066807;28;20025;-21
2021/06/25 09:29:22;;;;;;;20.92;9.15;;;;;;;34.91;37.81;99862.84;5067154;28;20021;-22
2021/06/25 09:31:58;;;;;;;19.77;9.05;;;;;;;35.32;38.63;99845.97;5066845;28;20117;-21
2021/06/25 09:34:39;;;;;;;20.60;9.63;;;;;;;35.40;36.61;99847.56;5066792;28;20036;-21
2021/06/25 09:37:04;;;;;;;20.92;8.68;;;;;;;35.47;35.50;99830.16;5066803;28;20032;-21
2021/06/25 09:39:30;;;;;;;19.88;8.73;;;;;;;35.41;37.20;99841.66;5066832;28;20389;-21
2021/06/25 09:41:55;;;;;;;20.00;8.15;;;;;;;35.77;35.20;99843.69;5066792;28;20024;-21
2021/06/25 09:44:21;;;;;;;14.13;7.90;;;;;;;36.34;35.86;99843.66;5048556;28;20473;-22
2021/06/25 09:46:51;;;;;;;18.13;8.25;;;;;;;36.05;34.20;99817.13;5066902;28;20029;-21
2021/06/25 09:49:22;;;;;;;20.90;8.70;;;;;;;36.30;35.87;99842.88;5066652;28;20056;-21
2021/06/25 09:51:57;;;;;;;17.90;8.77;;;;;;;36.01;33.33;99842.88;5066583;28;20021;-21
2021/06/25 09:54:22;;;;;;;21.50;8.75;;;;;;;36.38;34.42;99838.91;5066679;28;20135;-21
2021/06/25 10:02:22;;;;;;;18.73;7.93;;;;;;;36.31;32.67;99841.69;5066581;28;20790;-21
2021/06/25 10:04:49;;;;;;;17.15;7.57;;;;;;;36.37;34.44;99839.28;5066485;28;20485;-21
2021/06/25 10:07:16;;;;;;;15.80;7.10;;;;;;;36.78;31.53;99838.81;5066343;28;20047;-21
2021/06/25 10:09:43;;;;;;;21.77;7.60;;;;;;;36.50;31.36;99831.34;5067077;28;20029;-21
2021/06/25 10:12:13;;;;;;;;;;;;;;;36.42;30.32;99843.66;5052690;28;20115;-21
2021/06/25 10:14:38;;;;;;;16.45;6.82;;;;;;;36.58;30.73;99832.91;5052456;28;19915;-21
2021/06/25 10:17:05;;;;;;;23.85;6.88;;;;;;;36.57;29.61;99839.63;5070390;28;20036;-21
2021/06/25 10:19:32;;;;;;;18.70;7.65;;;;;;;36.88;29.72;99828.81;5070086;28;20062;-21
2021/06/25 10:22:00;;;;;;;22.02;6.72;;;;;;;37.29;30.38;99828.25;5069888;28;20062;-21
2021/06/25 10:24:26;;;;;;;21.42;7.18;;;;;;;37.07;29.85;99820.00;5070086;28;20024;-21
2021/06/25 10:26:51;;;;;;;21.90;6.80;;;;;;;37.20;29.24;99834.25;5035970;28;20036;-21
2021/06/25 10:29:17;;;;;;;19.42;7.03;;;;;;;37.38;29.08;99821.03;5035143;28;20087;-21
2021/06/25 10:31:42;;;;;;;22.23;7.35;;;;;;;37.64;28.64;99820.88;5052251;28;20040;-21
2021/06/25 10:34:08;;;;;;;17.65;7.30;;;;;;;37.79;27.02;99834.25;5035389;28;20472;-21
2021/06/25 10:36:36;;;;;;;24.13;8.88;;;;;;;38.06;27.81;99835.66;5069662;28;20028;-21
2021/06/25 10:39:10;;;;;;;24.23;7.07;;;;;;;37.93;28.86;99816.66;5069602;28;20021;-21
2021/06/25 10:41:55;;;;;;;17.40;6.93;;;;;;;38.09;27.40;99826.50;5051724;28;20044;-22
2021/06/25 10:44:36;;;;;;;16.33;7.00;;;;;;;37.98;27.21;99832.88;5069528;28;20877;-21
2021/06/25 10:47:27;;;;;;;19.98;7.60;;;;;;;38.18;28.63;99835.13;5069368;28;20040;-21
2021/06/25 10:49:59;;;;;;;21.20;7.50;;;;;;;37.69;27.65;99834.34;5069216;28;20129;-21
2021/06/25 10:52:25;;;;;;;17.00;7.85;;;;;;;38.24;29.50;99810.41;5069122;28;20499;-21
2021/06/25 10:55:03;;;;;;;19.75;7.47;;;;;;;38.21;28.27;99837.09;5069369;28;20028;-21
2021/06/25 10:57:33;;;;;;;21.23;7.47;;;;;;;38.72;28.63;99815.84;5069604;28;20029;-21
2021/06/25 10:59:59;;;;;;;19.92;7.53;;;;;;;38.57;27.96;99829.16;5051355;28;20028;-21
2021/06/25 11:02:40;;;;;;;16.88;7.57;;;;;;;38.52;28.09;99812.13;5068822;28;20115;-21
2021/06/25 11:05:29;;;;;;;18.63;7.80;;;;;;;38.77;27.83;99828.53;5069382;28;20051;-21
2021/06/25 11:07:55;;;;;;;18.90;7.45;;;;;;;38.53;28.32;99819.25;5053348;28;20036;-21
2021/06/25 11:10:22;;;;;;;21.23;7.65;;;;;;;39.10;26.53;99815.75;5068941;28;20024;-21
2021/06/25 11:12:47;;;;;;;19.35;7.80;;;;;;;38.77;28.35;99809.03;5069151;28;20041;-21
2021/06/25 11:15:13;;;;;;;21.83;7.80;;;;;;;39.00;26.60;99811.13;5068937;28;20047;-21
2021/06/25 11:17:54;;;;;;;19.70;7.70;;;;;;;39.13;26.85;99814.94;5069136;28;20040;-21
2021/06/25 11:20:23;;;;;;;27.73;8.55;;;;;;;38.95;27.45;99806.00;5068146;28;20058;-21
2021/06/25 11:23:00;;;;;;;14.25;7.15;;;;;;;38.68;28.92;99803.97;5067814;28;20078;-21
2021/06/25 11:25:48;;;;;;;18.33;7.25;;;;;;;39.05;28.01;99787.56;5068868;28;20127;-21
2021/06/25 11:28:38;;;;;;;17.48;7.45;;;;;;;39.41;26.10;99799.00;5068362;28;20032;-21
2021/06/25 11:31:17;;;;;;;16.52;7.50;;;;;;;39.55;26.23;99784.81;5068778;28;20169;-21
2021/06/25 11:33:55;;;;;;;16.35;7.55;;;;;;;39.55;25.89;99792.41;5068868;28;20036;-21
2021/06/25 11:36:52;;;;;;;21.92;8.40;;;;;;;39.79;26.26;99782.03;5068356;28;20056;-21